Ernest Shackleton — ZDLS1 — position and weather

sailwx.info

Track history (hours):
 
Tides and Currents Weather Stations Pressure Air Temp Water Temp Dewpoint Dewpoint Depression Visibility Wind Speed Wind Dir Waves Ship Positions

Oceanographic research ship Ernest Shackleton (UK/Norway)

Detailed information on ship capabilities available from University of Delaware's Ocean Information Center and ARCUS's ALIAS (Arctic Logistics Information and Support) project.

Last reported at 2017-Sep-24 22:37 UTC. Time now 2017-Sep-26 05:56 UTC.
Position N 57°26' E 010°33'.

Length 80 m; beam 17 m; draft 7.4 m.

Type: Ship. MMSI: 740357000.

Date/timePositionNaut miles runAvg speedWind from/ knotsBaromVisibWave heightAir tempDewpointWater temp
2017-Sep-24 22:37N 57°26' E 010°33'0 0.0
2017-Sep-24 19:19N 57°26' E 010°33'0 0.0
2017-Sep-24 18:55N 57°26' E 010°33'0 0.0
2017-Sep-24 18:16N 57°26' E 010°33'0 0.0
2017-Sep-24 17:55N 57°26' E 010°33'0 0.0
2017-Sep-24 06:28N 57°26' E 010°33'0 0.0
2017-Sep-24 05:52N 57°26' E 010°33'0 0.0
2017-Sep-24 05:25N 57°26' E 010°33'0 0.0
2017-Sep-24 04:52N 57°26' E 010°33'  
2017-Sep-21 08:00N 57°54' E 003°30'198 9.1 140 / 241012.9 5.4 14.813.914.2
2017-Sep-20 10:08N 58°33' W 002°39'1 8.8
2017-Sep-20 10:00N 58°33' W 002°40'5 9.3
2017-Sep-20 09:30N 58°36' W 002°48'714.6
2017-Sep-20 09:00N 58°40' W 002°59'815.4
2017-Sep-20 08:27N 58°43' W 003°15'613.3
2017-Sep-20 08:00N 58°43' W 003°27'510.4
2017-Sep-20 07:30N 58°43' W 003°36'4 8.0
2017-Sep-20 07:00N 58°43' W 003°44'4 7.7
2017-Sep-20 06:30N 58°43' W 003°52'4 7.4
2017-Sep-20 06:00N 58°43' W 003°59'4 7.3
2017-Sep-20 05:30N 58°42' W 004°06'4 7.1
2017-Sep-20 05:00N 58°43' W 004°13'4 7.0
2017-Sep-20 04:30N 58°43' W 004°19'4 7.4
2017-Sep-20 04:00N 58°43' W 004°26'  
Track history (hours):
 
Tides and Currents Weather Stations Pressure Air Temp Water Temp Dewpoint Dewpoint Depression Visibility Wind Speed Wind Dir Waves Ship Positions

Oceanographic research ship Ernest Shackleton (UK/Norway)

Detailed information on ship capabilities available from University of Delaware's Ocean Information Center and ARCUS's ALIAS (Arctic Logistics Information and Support) project.

Last reported at 2017-Sep-24 22:37 UTC. Time now 2017-Sep-26 05:56 UTC.
Position N 57°26' E 010°33'.

Length 80 m; beam 17 m; draft 7.4 m.

Type: Ship. MMSI: 740357000.

Date/timePositionNaut miles runAvg speedWind from/ knotsBaromVisibWave heightAir tempDewpointWater temp
2017-Sep-24 22:37N 57°26' E 010°33'0 0.0
2017-Sep-24 19:19N 57°26' E 010°33'0 0.0
2017-Sep-24 18:55N 57°26' E 010°33'0 0.0
2017-Sep-24 18:16N 57°26' E 010°33'0 0.0
2017-Sep-24 17:55N 57°26' E 010°33'0 0.0
2017-Sep-24 06:28N 57°26' E 010°33'0 0.0
2017-Sep-24 05:52N 57°26' E 010°33'0 0.0
2017-Sep-24 05:25N 57°26' E 010°33'0 0.0
2017-Sep-24 04:52N 57°26' E 010°33'  
2017-Sep-21 08:00N 57°54' E 003°30'198 9.1 140 / 241012.9 5.4 14.813.914.2
2017-Sep-20 10:08N 58°33' W 002°39'1 8.8
2017-Sep-20 10:00N 58°33' W 002°40'5 9.3
2017-Sep-20 09:30N 58°36' W 002°48'714.6
2017-Sep-20 09:00N 58°40' W 002°59'815.4
2017-Sep-20 08:27N 58°43' W 003°15'613.3
2017-Sep-20 08:00N 58°43' W 003°27'510.4
2017-Sep-20 07:30N 58°43' W 003°36'4 8.0
2017-Sep-20 07:00N 58°43' W 003°44'4 7.7
2017-Sep-20 06:30N 58°43' W 003°52'4 7.4
2017-Sep-20 06:00N 58°43' W 003°59'4 7.3
2017-Sep-20 05:30N 58°42' W 004°06'4 7.1
2017-Sep-20 05:00N 58°43' W 004°13'4 7.0
2017-Sep-20 04:30N 58°43' W 004°19'4 7.4
2017-Sep-20 04:00N 58°43' W 004°26'  

Dump ship's entire track history